Reads Landing, Minnesota
Current Conditions -  °F | °C
As of 7:10 PM on Saturday 22 Nov 2014 (Local Time) from KRGK Reporting Station
Haze Haze  
Wind Chill: 32°   Ceiling: NA
Heat Index: 37°   Visibility: 1.5mi
Dew Point: 36°   Wind: 7mph
Humidity: 93%   Direction: 130°SE
Pressure: 29.64"   Gusts: NA
Location:  44.4°N, 92.08°W
Report Text: KRGK 230110Z AUTO 13006KT 1 1/2SM BR 03/02 A2964 RMK AO2
Loading
Personal Weather Stations






























Interactive Weather Map New forecast layout! Learn more

10-Day Weather Forecast

Advertisements
Track Severe Weather on mobile